Time;durP1;ratioP1;P1;durP2;ratioP2;P2;SDS_P1;SDS_P2;PMS_P1;PMS_P2;Temp;Humidity;BMP_temperature;BMP_pressure;BME280_temperature;BME280_humidity;BME280_pressure;Samples;Min_cycle;Max_cycle;Signal;HPM_P1;HPM_P2
2022/03/25 00:01:23;;;;;;;7.78;6.37;;;;;;;5.93;46.63;99492.19;1707701;83;21333;-63
2022/03/25 00:03:50;;;;;;;7.62;6.10;;;;;;;5.94;46.62;99494.71;1701778;83;20927;-63
2022/03/25 00:06:17;;;;;;;9.20;5.85;;;;;;;5.98;46.56;99493.44;1695436;83;20939;-63
2022/03/25 00:08:45;;;;;;;7.35;5.20;;;;;;;6.01;46.54;99489.20;1709365;83;21580;-64
2022/03/25 00:11:12;;;;;;;9.28;5.97;;;;;;;6.05;46.50;99497.66;1706890;83;21406;-63
2022/03/25 00:13:40;;;;;;;7.95;6.08;;;;;;;6.08;46.53;99497.37;1707883;83;21247;-64
2022/03/25 00:16:07;;;;;;;6.47;5.83;;;;;;;6.08;46.49;99493.42;1698411;83;21536;-64
2022/03/25 00:18:35;;;;;;;8.03;6.03;;;;;;;6.08;46.51;99493.42;1701922;83;21034;-63
2022/03/25 00:21:02;;;;;;;7.08;5.75;;;;;;;6.07;46.52;99491.77;1709717;83;20943;-63
2022/03/25 00:23:29;;;;;;;8.80;6.53;;;;;;;6.07;46.55;99486.49;1706113;83;21011;-64
2022/03/25 00:25:56;;;;;;;5.83;5.25;;;;;;;6.06;46.54;99486.13;1698006;83;21307;-64
2022/03/25 00:28:23;;;;;;;6.70;6.08;;;;;;;6.05;46.60;99480.01;1706017;83;21082;-63
2022/03/25 00:30:51;;;;;;;7.33;6.05;;;;;;;6.06;46.59;99470.28;1705887;83;20942;-64
2022/03/25 00:33:19;;;;;;;9.78;6.75;;;;;;;6.06;46.64;99469.80;1706830;83;20903;-64
2022/03/25 00:35:48;;;;;;;8.15;5.50;;;;;;;6.07;46.72;99474.13;1705756;83;20991;-63
2022/03/25 00:38:16;;;;;;;7.33;6.37;;;;;;;6.09;46.69;99469.53;1709064;83;21290;-64
2022/03/25 00:40:44;;;;;;;6.70;6.05;;;;;;;6.09;46.67;99467.37;1715269;83;20951;-64
2022/03/25 00:43:12;;;;;;;8.48;6.45;;;;;;;6.08;46.67;99467.01;1712981;83;20934;-63
2022/03/25 00:45:40;;;;;;;9.03;6.33;;;;;;;6.06;46.67;99463.68;1715389;83;20919;-64
2022/03/25 00:48:08;;;;;;;7.67;6.00;;;;;;;6.06;46.71;99464.52;1703795;83;21568;-63
2022/03/25 00:50:35;;;;;;;7.47;5.53;;;;;;;6.05;46.79;99457.56;1715430;83;21224;-64
2022/03/25 00:53:02;;;;;;;7.58;6.45;;;;;;;6.04;46.87;99461.20;1715228;83;20939;-64
2022/03/25 00:55:30;;;;;;;8.43;7.10;;;;;;;6.04;46.91;99461.67;1713600;83;20990;-63
2022/03/25 00:58:01;;;;;;;10.93;7.95;;;;;;;6.04;46.98;99463.00;1710573;83;20946;-63
2022/03/25 01:00:30;;;;;;;12.88;10.50;;;;;;;6.03;47.00;99464.80;1713204;83;21670;-64
2022/03/25 01:02:57;;;;;;;17.92;13.10;;;;;;;6.05;47.05;99460.20;1715410;83;21537;-63
2022/03/25 01:05:26;;;;;;;15.23;12.20;;;;;;;6.06;47.01;99469.80;1709112;83;21002;-64
2022/03/25 01:07:55;;;;;;;12.07;10.88;;;;;;;6.04;47.08;99470.44;1699429;83;21025;-63
2022/03/25 01:10:23;;;;;;;9.70;8.73;;;;;;;6.03;47.18;99467.44;1678253;85;20951;-64
2022/03/25 01:12:51;;;;;;;10.68;9.55;;;;;;;6.02;47.23;99463.64;1684041;85;20877;-64
2022/03/25 01:15:19;;;;;;;15.63;13.03;;;;;;;6.01;47.23;99462.80;1713172;83;21270;-63
2022/03/25 01:17:47;;;;;;;14.68;12.23;;;;;;;6.02;47.28;99460.48;1715203;83;20934;-63
2022/03/25 01:20:17;;;;;;;9.95;8.95;;;;;;;6.03;47.40;99458.68;1702782;83;21046;-65
2022/03/25 01:22:44;;;;;;;8.20;7.10;;;;;;;6.01;47.46;99464.12;1715383;83;20864;-64
2022/03/25 01:25:11;;;;;;;7.58;6.72;;;;;;;6.01;47.50;99466.76;1713212;83;20919;-64
2022/03/25 01:27:40;;;;;;;9.05;6.70;;;;;;;6.03;47.53;99473.20;1715330;83;21218;-62
2022/03/25 01:30:08;;;;;;;9.28;7.60;;;;;;;6.04;47.60;99466.48;1703651;83;20943;-64
2022/03/25 01:32:37;;;;;;;10.15;8.78;;;;;;;6.05;47.62;99474.73;1692968;83;20993;-63
2022/03/25 01:35:08;;;;;;;11.08;10.08;;;;;;;6.09;47.59;99472.17;1714743;83;21511;-63
2022/03/25 01:37:37;;;;;;;9.13;8.10;;;;;;;6.10;47.62;99471.69;1694035;83;21564;-63
2022/03/25 01:40:09;;;;;;;9.33;8.43;;;;;;;6.13;47.65;99468.25;1698621;83;21816;-64
2022/03/25 01:42:41;;;;;;;14.18;12.70;;;;;;;6.15;47.70;99470.26;1697047;83;21477;-63
2022/03/25 01:45:11;;;;;;;13.03;11.68;;;;;;;6.14;47.69;99474.38;1705925;83;21461;-64
2022/03/25 01:47:38;;;;;;;13.00;11.80;;;;;;;6.14;47.76;99473.89;1690195;83;20927;-63
2022/03/25 01:50:19;;;;;;;10.90;9.43;;;;;;;6.17;47.76;99477.58;1698232;83;20971;-63
2022/03/25 01:52:48;;;;;;;9.08;7.90;;;;;;;6.17;47.78;99478.89;1693098;83;21345;-63
2022/03/25 01:55:21;;;;;;;9.53;7.50;;;;;;;6.19;47.80;99476.94;1703298;83;21553;-63
2022/03/25 01:57:50;;;;;;;8.75;6.80;;;;;;;6.19;47.83;99479.58;1710581;83;20975;-63
2022/03/25 02:00:17;;;;;;;7.00;6.30;;;;;;;6.20;47.85;99485.70;1694197;83;20994;-62
2022/03/25 02:02:50;;;;;;;6.87;6.17;;;;;;;6.20;47.90;99477.77;1709356;83;20860;-63
2022/03/25 02:05:18;;;;;;;7.50;6.60;;;;;;;6.20;47.93;99481.73;1705753;83;21994;-64
2022/03/25 02:07:46;;;;;;;8.18;6.97;;;;;;;6.21;47.92;99482.91;1707982;83;21035;-63
2022/03/25 02:10:14;;;;;;;8.30;7.17;;;;;;;6.23;47.97;99482.78;1697007;83;20923;-64
2022/03/25 02:12:45;;;;;;;7.83;6.35;;;;;;;6.25;47.99;99483.47;1707966;83;20975;-64
2022/03/25 02:15:12;;;;;;;8.95;6.95;;;;;;;6.25;48.02;99493.19;1706516;83;20982;-63
2022/03/25 02:17:41;;;;;;;7.70;6.50;;;;;;;6.23;48.11;99486.74;1709432;83;20895;-63
2022/03/25 02:20:10;;;;;;;7.53;6.33;;;;;;;6.23;48.08;99484.10;1698201;83;20900;-63
2022/03/25 02:22:40;;;;;;;7.55;6.75;;;;;;;6.26;48.08;99490.91;1658553;85;21017;-64
2022/03/25 02:25:09;;;;;;;8.45;6.60;;;;;;;6.28;48.04;99500.36;1682113;85;21028;-63
2022/03/25 02:27:37;;;;;;;8.43;6.25;;;;;;;6.30;48.01;99498.39;1662959;85;21004;-64
2022/03/25 02:30:07;;;;;;;7.47;6.55;;;;;;;6.29;48.05;99499.36;1671172;85;21182;-64
2022/03/25 02:32:35;;;;;;;9.53;6.42;;;;;;;6.30;48.09;99497.56;1681993;85;21016;-64
2022/03/25 02:35:03;;;;;;;7.15;6.10;;;;;;;6.28;48.16;99505.64;1708055;83;20907;-64
2022/03/25 02:37:31;;;;;;;7.08;6.37;;;;;;;6.27;48.24;99505.28;1696399;83;20998;-63
2022/03/25 02:39:58;;;;;;;9.35;7.22;;;;;;;6.25;48.35;99513.84;1699508;83;20955;-63
2022/03/25 02:42:26;;;;;;;7.70;6.47;;;;;;;6.23;48.44;99515.29;1707272;83;21334;-63
2022/03/25 02:44:53;;;;;;;7.87;6.87;;;;;;;6.19;48.57;99511.76;1709300;83;20987;-62
2022/03/25 02:47:20;;;;;;;7.12;6.30;;;;;;;6.18;48.67;99516.69;1708551;83;20951;-63
2022/03/25 02:49:47;;;;;;;7.50;6.70;;;;;;;6.13;48.75;99515.80;1698531;83;21050;-63
2022/03/25 02:52:14;;;;;;;7.55;6.62;;;;;;;6.10;48.89;99518.72;1708483;83;21066;-63
2022/03/25 02:54:43;;;;;;;7.85;6.92;;;;;;;6.08;48.95;99511.91;1709486;83;21317;-62
2022/03/25 02:57:10;;;;;;;7.55;6.70;;;;;;;6.07;49.08;99509.78;1707055;83;20895;-63
2022/03/25 02:59:38;;;;;;;7.70;6.90;;;;;;;6.05;49.17;99522.75;1698854;83;20946;-63
2022/03/25 03:02:05;;;;;;;7.22;6.45;;;;;;;6.03;49.25;99520.26;1707670;83;21098;-65
2022/03/25 03:04:33;;;;;;;8.00;7.20;;;;;;;5.99;49.38;99522.84;1705300;83;21065;-64
2022/03/25 03:07:04;;;;;;;9.53;6.87;;;;;;;5.98;49.50;99520.33;1708876;83;21433;-64
2022/03/25 03:09:31;;;;;;;7.97;6.50;;;;;;;5.94;49.58;99533.48;1698135;83;20986;-64
2022/03/25 03:11:59;;;;;;;9.20;7.83;;;;;;;5.90;49.77;99532.08;1709322;83;21023;-64
2022/03/25 03:14:27;;;;;;;11.93;8.10;;;;;;;5.86;49.92;99534.66;1703800;83;20970;-63
2022/03/25 03:16:55;;;;;;;12.93;9.28;;;;;;;5.83;50.00;99537.54;1703293;83;21006;-63
2022/03/25 03:19:24;;;;;;;11.43;10.08;;;;;;;5.79;50.17;99547.53;1697775;83;21275;-63
2022/03/25 03:21:53;;;;;;;12.60;9.75;;;;;;;5.71;50.36;99543.94;1704911;83;20895;-63
2022/03/25 03:24:20;;;;;;;12.18;10.20;;;;;;;5.63;50.53;99552.03;1705567;83;20979;-62
2022/03/25 03:26:47;;;;;;;10.03;9.00;;;;;;;5.60;50.63;99554.94;1707981;83;21028;-63
2022/03/25 03:29:15;;;;;;;9.80;8.23;;;;;;;5.53;50.81;99562.23;1699142;83;21690;-63
2022/03/25 03:31:42;;;;;;;9.78;8.55;;;;;;;5.46;50.91;99574.31;1708684;83;21283;-62
2022/03/25 03:34:10;;;;;;;8.95;7.70;;;;;;;5.38;51.18;99580.27;1705434;83;20940;-63
2022/03/25 03:36:39;;;;;;;10.15;8.18;;;;;;;5.30;51.42;99585.85;1709337;83;21046;-63
2022/03/25 03:39:06;;;;;;;9.08;8.08;;;;;;;5.19;51.71;99580.70;1703927;83;20987;-63
2022/03/25 03:41:34;;;;;;;9.05;8.10;;;;;;;5.13;51.91;99585.19;1690681;83;21517;-63
2022/03/25 03:44:02;;;;;;;7.85;7.05;;;;;;;5.07;52.09;99581.75;1709400;83;21287;-63
2022/03/25 03:46:30;;;;;;;8.70;7.80;;;;;;;5.00;52.26;99591.50;1706083;83;21569;-64
2022/03/25 03:48:57;;;;;;;8.10;7.20;;;;;;;4.91;52.56;99584.40;1707878;83;20966;-64
2022/03/25 03:51:24;;;;;;;8.15;7.03;;;;;;;4.82;52.88;99590.45;1697841;83;20926;-63
2022/03/25 03:53:51;;;;;;;8.15;7.08;;;;;;;4.77;53.00;99594.47;1708018;83;20924;-63
2022/03/25 03:56:20;;;;;;;7.97;7.00;;;;;;;4.72;53.22;99596.66;1706987;83;21278;-63
2022/03/25 03:58:47;;;;;;;7.90;7.00;;;;;;;4.66;53.31;99596.70;1707907;83;20903;-64
2022/03/25 04:01:14;;;;;;;10.90;7.37;;;;;;;4.63;53.52;99604.02;1705547;83;20863;-63
2022/03/25 04:03:42;;;;;;;9.98;8.08;;;;;;;4.58;53.75;99604.89;1707853;83;20955;-63
2022/03/25 04:06:09;;;;;;;8.85;6.78;;;;;;;4.53;53.90;99601.80;1707444;83;21477;-64
2022/03/25 04:08:36;;;;;;;8.88;7.97;;;;;;;4.49;54.19;99601.22;1698252;83;21332;-64
2022/03/25 04:11:03;;;;;;;8.78;7.50;;;;;;;4.44;54.30;99609.98;1693051;83;20860;-63
2022/03/25 04:13:31;;;;;;;12.68;8.40;;;;;;;4.41;54.46;99606.80;1706512;83;21029;-64
2022/03/25 04:15:58;;;;;;;9.75;8.18;;;;;;;4.36;54.73;99617.22;1709361;83;20959;-64
2022/03/25 04:18:27;;;;;;;8.63;7.03;;;;;;;4.38;54.81;99621.03;1705549;83;20974;-63
2022/03/25 04:20:55;;;;;;;8.35;7.45;;;;;;;4.40;54.92;99620.45;1697484;83;21323;-64
2022/03/25 04:23:22;;;;;;;8.65;7.58;;;;;;;4.46;54.90;99620.42;1705542;83;20928;-64
2022/03/25 04:25:49;;;;;;;8.83;7.70;;;;;;;4.55;54.84;99624.42;1701117;83;20979;-63
2022/03/25 04:28:18;;;;;;;10.63;7.72;;;;;;;4.65;54.70;99635.02;1708588;83;20954;-64
2022/03/25 04:30:45;;;;;;;7.72;6.92;;;;;;;4.74;54.60;99640.84;1700848;83;20951;-63
2022/03/25 04:33:12;;;;;;;8.33;7.53;;;;;;;4.86;54.46;99641.11;1707094;83;21275;-63
2022/03/25 04:35:40;;;;;;;8.63;7.53;;;;;;;5.00;54.23;99643.42;1702366;83;20880;-64
2022/03/25 04:38:08;;;;;;;8.43;7.25;;;;;;;5.16;53.91;99646.90;1706282;83;20935;-63
2022/03/25 04:40:37;;;;;;;11.15;8.03;;;;;;;5.31;53.59;99657.44;1698157;83;20959;-64
2022/03/25 04:43:06;;;;;;;10.90;8.53;;;;;;;5.49;53.20;99660.64;1714276;83;20943;-63
2022/03/25 04:45:35;;;;;;;9.48;7.17;;;;;;;5.67;52.82;99654.23;1710138;83;21187;-63
2022/03/25 04:48:03;;;;;;;11.40;8.35;;;;;;;5.88;52.41;99654.16;1715398;83;20884;-63
2022/03/25 04:50:31;;;;;;;7.47;6.72;;;;;;;6.12;51.87;99660.75;1706010;83;21072;-64
2022/03/25 04:52:58;;;;;;;7.70;6.85;;;;;;;6.35;51.37;99663.95;1714729;83;20946;-64
2022/03/25 04:55:25;;;;;;;8.70;7.78;;;;;;;6.59;50.77;99667.00;1708269;83;21044;-63
2022/03/25 04:57:52;;;;;;;10.55;7.47;;;;;;;6.86;50.25;99666.25;1715375;83;22059;-64
2022/03/25 05:00:19;;;;;;;9.03;8.15;;;;;;;7.14;49.55;99664.05;1706132;83;20927;-64
2022/03/25 05:02:46;;;;;;;8.15;7.37;;;;;;;7.40;48.95;99667.69;1715205;83;20943;-65
2022/03/25 05:05:13;;;;;;;10.10;7.65;;;;;;;7.72;48.34;99671.72;1708610;83;20908;-63
2022/03/25 05:07:43;;;;;;;8.45;7.22;;;;;;;8.06;47.65;99671.45;1708989;83;20926;-63
2022/03/25 05:10:11;;;;;;;7.97;7.12;;;;;;;8.37;46.80;99671.46;1706114;83;21845;-63
2022/03/25 05:12:44;;;;;;;10.18;7.65;;;;;;;8.69;46.26;99677.06;1715154;83;20883;-63
2022/03/25 05:15:11;;;;;;;8.33;7.47;;;;;;;9.05;45.47;99680.47;1712859;83;20863;-64
2022/03/25 05:17:51;;;;;;;8.48;7.58;;;;;;;9.37;44.86;99682.98;1713072;83;20895;-65
2022/03/25 05:20:19;;;;;;;8.65;7.75;;;;;;;9.68;44.14;99689.45;1712893;83;20978;-64
2022/03/25 05:22:48;;;;;;;8.15;7.35;;;;;;;9.99;43.30;99688.39;1715173;83;20943;-63
2022/03/25 05:25:16;;;;;;;9.33;8.43;;;;;;;10.25;42.79;99695.81;1712897;83;20974;-66
2022/03/25 05:27:53;;;;;;;8.55;7.45;;;;;;;10.49;42.23;99700.69;1708250;83;21024;-63
2022/03/25 05:30:24;;;;;;;9.73;8.73;;;;;;;10.78;41.67;99704.70;1711429;83;21102;-62
2022/03/25 05:32:51;;;;;;;10.35;8.33;;;;;;;11.13;41.10;99711.83;1714961;83;20883;-63
2022/03/25 05:35:23;;;;;;;10.60;8.83;;;;;;;11.50;40.54;99717.09;1712914;83;22007;-63
2022/03/25 05:37:51;;;;;;;10.28;8.03;;;;;;;11.84;39.96;99721.68;1707430;83;21489;-63
2022/03/25 05:40:20;;;;;;;9.43;8.48;;;;;;;12.19;39.38;99719.03;1709726;83;21026;-64
2022/03/25 05:42:48;;;;;;;9.65;8.45;;;;;;;12.58;38.84;99729.64;1708818;83;21493;-63
2022/03/25 05:45:15;;;;;;;8.13;7.33;;;;;;;12.93;37.78;99728.53;1707165;83;21524;-65
2022/03/25 05:47:44;;;;;;;8.63;7.83;;;;;;;13.16;37.53;99727.72;1702208;83;20909;-65
2022/03/25 05:50:11;;;;;;;9.50;7.47;;;;;;;13.43;36.64;99729.78;1706354;83;21402;-65
2022/03/25 05:52:40;;;;;;;8.70;7.08;;;;;;;13.66;36.35;99738.56;1709305;83;21495;-63
2022/03/25 05:55:10;;;;;;;8.28;7.45;;;;;;;13.88;35.69;99742.16;1699105;83;20987;-64
2022/03/25 05:57:37;;;;;;;7.85;6.55;;;;;;;14.04;35.20;99740.64;1682656;83;21019;-62
2022/03/25 06:00:08;;;;;;;8.38;6.92;;;;;;;14.18;35.13;99740.61;1703582;83;21256;-64
2022/03/25 06:02:42;;;;;;;8.20;6.55;;;;;;;14.40;34.58;99746.89;1689579;83;20895;-63
2022/03/25 06:05:11;;;;;;;7.22;6.22;;;;;;;14.64;34.25;99750.56;1699716;83;21130;-64
2022/03/25 06:07:39;;;;;;;9.63;6.78;;;;;;;14.88;33.63;99753.39;1691338;83;20955;-67
2022/03/25 06:10:08;;;;;;;7.08;6.47;;;;;;;15.03;33.44;99743.42;1703710;83;20982;-63
2022/03/25 06:12:37;;;;;;;7.00;6.28;;;;;;;15.25;33.03;99749.06;1689427;83;20986;-64
2022/03/25 06:15:07;;;;;;;6.17;5.55;;;;;;;15.40;32.89;99749.83;1701811;83;21026;-65
2022/03/25 06:17:43;;;;;;;7.65;5.72;;;;;;;15.66;32.42;99753.24;1709035;83;20979;-63
2022/03/25 06:20:13;;;;;;;7.28;5.90;;;;;;;15.97;31.96;99754.98;1705732;83;20946;-64
2022/03/25 06:22:41;;;;;;;6.05;5.45;;;;;;;16.29;31.31;99760.20;1709233;83;21402;-65
2022/03/25 06:25:09;;;;;;;5.90;5.28;;;;;;;16.48;30.43;99760.77;1702850;83;21892;-64
2022/03/25 06:27:55;;;;;;;5.65;5.10;;;;;;;16.61;30.39;99764.05;1687746;83;21002;-65
2022/03/25 06:30:26;;;;;;;5.47;4.90;;;;;;;16.73;30.21;99758.42;1705081;83;21074;-64
2022/03/25 06:32:53;;;;;;;6.20;5.60;;;;;;;16.97;29.67;99764.54;1707836;83;20947;-64
2022/03/25 06:35:21;;;;;;;5.17;4.67;;;;;;;17.09;29.27;99767.47;1702718;83;20924;-64
2022/03/25 06:37:52;;;;;;;4.90;4.50;;;;;;;17.23;29.13;99768.60;1700589;83;21478;-63
2022/03/25 06:40:19;;;;;;;4.78;4.37;;;;;;;17.49;28.72;99771.00;1708253;83;21492;-64
2022/03/25 06:42:46;;;;;;;6.45;4.85;;;;;;;17.69;28.08;99775.88;1710596;83;20990;-64
2022/03/25 06:45:15;;;;;;;8.40;4.85;;;;;;;17.71;28.00;99778.66;1701573;83;20876;-63
2022/03/25 06:47:43;;;;;;;7.80;5.03;;;;;;;17.84;28.04;99781.84;1705219;83;20970;-65
2022/03/25 06:50:13;;;;;;;4.70;4.30;;;;;;;18.19;27.43;99785.09;1705636;83;21214;-65
2022/03/25 06:52:41;;;;;;;4.58;4.17;;;;;;;18.44;26.84;99790.06;1698036;83;20983;-65
2022/03/25 06:55:10;;;;;;;5.65;5.08;;;;;;;18.55;26.35;99794.00;1699756;83;21014;-65
2022/03/25 06:57:39;;;;;;;11.70;5.30;;;;;;;18.49;26.34;99792.98;1693424;83;21111;-65
2022/03/25 07:00:12;;;;;;;6.50;4.50;;;;;;;18.51;26.47;99800.86;1706817;83;21030;-67
2022/03/25 07:02:41;;;;;;;5.47;4.97;;;;;;;18.66;26.33;99798.20;1697889;83;21228;-67
2022/03/25 07:05:11;;;;;;;6.33;5.70;;;;;;;18.89;26.10;99801.70;1707627;83;20947;-68
2022/03/25 07:07:40;;;;;;;8.58;5.15;;;;;;;19.02;25.68;99802.46;1687092;83;20962;-66
2022/03/25 07:10:09;;;;;;;5.42;4.92;;;;;;;19.22;25.52;99806.36;1706626;83;20959;-70
2022/03/25 07:12:38;;;;;;;6.65;4.55;;;;;;;19.36;25.23;99809.28;1692623;83;21491;-69
2022/03/25 07:15:07;;;;;;;5.85;5.33;;;;;;;19.34;24.96;99802.45;1697293;83;21277;-70
2022/03/25 07:17:37;;;;;;;9.60;5.92;;;;;;;19.19;24.99;99806.80;1688923;83;20998;-67
2022/03/25 07:20:15;;;;;;;12.80;5.95;;;;;;;19.23;24.90;99813.42;1707383;83;20946;-70
2022/03/25 07:22:44;;;;;;;7.10;5.70;;;;;;;19.50;24.87;99818.94;1688005;83;21599;-67
2022/03/25 07:25:12;;;;;;;6.50;5.90;;;;;;;19.91;24.45;99822.97;1701213;83;21445;-65
2022/03/25 07:27:39;;;;;;;6.25;5.65;;;;;;;20.13;23.86;99822.83;1709387;83;21548;-65
2022/03/25 07:30:08;;;;;;;6.17;5.58;;;;;;;20.11;23.60;99826.29;1707479;83;20903;-65
2022/03/25 07:32:35;;;;;;;6.45;5.90;;;;;;;20.17;23.19;99821.35;1691139;83;20951;-66
2022/03/25 07:35:05;;;;;;;6.78;5.62;;;;;;;20.21;23.29;99815.27;1704417;83;20951;-68
2022/03/25 07:37:32;;;;;;;5.87;5.37;;;;;;;20.38;23.43;99825.00;1706732;83;21573;-68
2022/03/25 07:39:59;;;;;;;7.50;6.80;;;;;;;20.52;23.31;99824.33;1711590;83;21326;-65
2022/03/25 07:42:26;;;;;;;7.20;6.40;;;;;;;20.69;23.14;99824.83;1709371;83;21072;-66
2022/03/25 07:44:54;;;;;;;6.90;6.30;;;;;;;20.84;22.93;99833.36;1707173;83;20935;-67
2022/03/25 07:47:21;;;;;;;6.35;5.75;;;;;;;21.08;22.73;99833.49;1713021;83;20963;-70
2022/03/25 07:49:49;;;;;;;5.83;5.30;;;;;;;21.32;22.35;99835.23;1715289;83;21010;-67
2022/03/25 07:52:16;;;;;;;6.83;6.22;;;;;;;21.31;22.13;99838.98;1712092;83;21406;-65
2022/03/25 07:54:45;;;;;;;6.78;6.17;;;;;;;21.46;21.95;99837.48;1707314;83;20887;-69
2022/03/25 07:57:12;;;;;;;5.85;4.90;;;;;;;21.59;21.62;99836.45;1713068;83;21453;-69
2022/03/25 07:59:39;;;;;;;5.22;4.78;;;;;;;21.61;21.38;99841.65;1705717;83;20999;-65
2022/03/25 08:02:07;;;;;;;7.58;5.12;;;;;;;21.63;21.29;99848.48;1702474;83;21094;-68
2022/03/25 08:04:35;;;;;;;5.97;5.47;;;;;;;21.71;21.09;99852.20;1695161;83;21042;-71
2022/03/25 08:07:04;;;;;;;6.28;5.70;;;;;;;21.92;20.89;99847.61;1713490;83;20880;-66
2022/03/25 08:09:31;;;;;;;7.80;7.10;;;;;;;22.16;20.99;99849.77;1695082;83;20990;-67
2022/03/25 08:11:59;;;;;;;10.58;7.05;;;;;;;22.28;20.59;99841.12;1699744;83;20971;-68
2022/03/25 08:14:27;;;;;;;7.53;6.75;;;;;;;22.20;20.56;99846.89;1700370;83;20989;-66
2022/03/25 08:16:54;;;;;;;7.40;6.65;;;;;;;22.14;20.68;99853.24;1709510;83;22274;-67
2022/03/25 08:19:22;;;;;;;12.45;5.58;;;;;;;22.21;20.49;99849.08;1710570;83;21429;-66
2022/03/25 08:21:51;;;;;;;7.30;4.50;;;;;;;22.20;20.20;99859.61;1708862;83;20931;-67
2022/03/25 08:29:51;;;;;;;5.45;4.95;;;;;;;22.39;20.13;99851.13;1691545;83;21287;-67
2022/03/25 08:32:19;;;;;;;6.80;5.55;;;;;;;22.65;20.03;99857.42;1709610;83;20907;-66
2022/03/25 08:34:47;;;;;;;4.78;4.37;;;;;;;22.92;19.59;99862.27;1709570;83;21017;-66
2022/03/25 08:37:14;;;;;;;6.00;4.45;;;;;;;23.14;19.05;99867.33;1702453;83;20926;-66
2022/03/25 08:39:42;;;;;;;4.83;3.90;;;;;;;23.17;19.12;99866.85;1708985;83;21017;-65
2022/03/25 08:42:10;;;;;;;4.67;4.25;;;;;;;23.32;19.04;99865.25;1704887;83;21296;-66
2022/03/25 08:44:38;;;;;;;6.97;4.85;;;;;;;23.46;18.80;99859.55;1677281;83;21045;-67
2022/03/25 08:47:06;;;;;;;4.50;3.70;;;;;;;23.39;18.84;99867.03;1703797;83;20927;-66
2022/03/25 08:49:33;;;;;;;12.50;5.40;;;;;;;23.47;18.85;99863.89;1705216;83;20923;-65
2022/03/25 08:52:01;;;;;;;5.83;4.85;;;;;;;23.74;18.74;99867.63;1691718;83;20884;-65
2022/03/25 08:54:28;;;;;;;6.17;4.72;;;;;;;23.88;18.42;99863.53;1695926;83;21235;-64
2022/03/25 08:56:55;;;;;;;4.53;4.12;;;;;;;23.89;18.33;99874.67;1705210;83;21057;-65
2022/03/25 08:59:23;;;;;;;5.90;5.30;;;;;;;23.90;18.28;99873.61;1708427;83;21101;-66
2022/03/25 09:01:50;;;;;;;5.97;5.40;;;;;;;23.79;18.08;99873.14;1709240;83;20876;-65
2022/03/25 09:04:17;;;;;;;5.03;4.53;;;;;;;23.74;18.14;99878.50;1706980;83;21010;-66
2022/03/25 09:06:45;;;;;;;4.92;4.53;;;;;;;23.79;18.18;99877.22;1704739;83;21813;-64
2022/03/25 09:09:14;;;;;;;5.30;3.98;;;;;;;24.07;17.88;99877.66;1706101;83;21481;-64
2022/03/25 09:11:41;;;;;;;6.60;4.42;;;;;;;24.29;17.72;99873.15;1707868;83;20951;-64
2022/03/25 09:14:11;;;;;;;6.12;4.28;;;;;;;24.57;17.71;99873.00;1705566;83;20903;-65
2022/03/25 09:16:41;;;;;;;9.93;4.92;;;;;;;24.87;17.51;99886.21;1690619;83;21497;-67
2022/03/25 09:19:10;;;;;;;5.40;4.90;;;;;;;25.11;17.27;99880.77;1705632;83;20982;-66
2022/03/25 09:21:37;;;;;;;5.22;4.83;;;;;;;25.28;17.07;99884.77;1678468;83;21513;-68
2022/03/25 09:24:05;;;;;;;5.30;4.83;;;;;;;25.52;16.93;99884.78;1697794;83;20872;-67
2022/03/25 09:26:33;;;;;;;6.25;5.10;;;;;;;25.73;16.55;99886.05;1706714;83;21142;-66
2022/03/25 09:29:00;;;;;;;6.78;5.25;;;;;;;25.59;16.63;99886.75;1707870;83;20919;-66
2022/03/25 09:31:29;;;;;;;5.30;4.80;;;;;;;25.44;16.62;99885.22;1692531;83;21010;-68
2022/03/25 09:35:08;;;;;;;5.33;4.87;;;;;;;25.14;16.83;99873.45;1704264;83;21061;-67
2022/03/25 09:36:25;;;;;;;5.53;5.00;;;;;;;25.16;16.83;99874.84;1703488;83;20967;-66
2022/03/25 09:38:52;;;;;;;6.65;6.08;;;;;;;25.40;16.66;99885.43;1709149;83;20955;-65
2022/03/25 09:41:19;;;;;;;5.12;4.72;;;;;;;25.48;16.52;99883.11;1697335;83;21048;-66
2022/03/25 09:43:47;;;;;;;6.17;5.58;;;;;;;25.47;16.41;99884.17;1715306;83;21265;-66
2022/03/25 09:46:14;;;;;;;7.28;5.37;;;;;;;25.41;16.43;99887.91;1712972;83;21002;-67
2022/03/25 09:48:41;;;;;;;5.75;5.30;;;;;;;25.48;16.47;99884.47;1715134;83;20998;-65
2022/03/25 09:51:09;;;;;;;8.28;7.58;;;;;;;25.37;16.61;99886.77;1706775;83;20975;-68
2022/03/25 09:53:36;;;;;;;6.22;5.65;;;;;;;25.31;16.70;99883.73;1704821;83;20993;-65
2022/03/25 09:56:04;;;;;;;5.85;5.35;;;;;;;25.22;16.77;99881.16;1706078;83;21990;-66
2022/03/25 09:58:31;;;;;;;7.15;5.15;;;;;;;25.24;16.52;99884.45;1713872;83;21537;-67
2022/03/25 10:00:59;;;;;;;5.92;5.08;;;;;;;25.33;16.77;99881.56;1716296;83;21023;-67
2022/03/25 10:03:37;;;;;;;5.62;5.12;;;;;;;25.53;16.50;99884.52;1713057;83;21524;-65
2022/03/25 10:06:10;;;;;;;5.22;4.78;;;;;;;25.59;16.44;99884.03;1707416;83;20939;-65
2022/03/25 10:08:42;;;;;;;8.85;5.87;;;;;;;25.52;16.26;99888.34;1703594;83;21915;-67
2022/03/25 10:11:26;;;;;;;5.37;4.97;;;;;;;25.21;16.11;99885.52;1701038;83;21480;-67
2022/03/25 10:14:19;;;;;;;5.15;4.72;;;;;;;24.53;16.25;99878.11;1701757;83;21496;-64
2022/03/25 10:16:48;;;;;;;5.30;4.90;;;;;;;23.42;17.19;99888.23;1715388;83;21094;-66
2022/03/25 10:19:23;;;;;;;4.90;4.50;;;;;;;22.96;17.68;99893.30;1695552;83;20954;-63
2022/03/25 10:22:02;;;;;;;4.55;3.98;;;;;;;22.73;17.83;99888.77;1715641;83;21234;-67
2022/03/25 10:24:48;;;;;;;4.10;3.80;;;;;;;22.00;17.79;99895.19;1713564;83;21033;-65
2022/03/25 10:27:21;;;;;;;8.33;3.70;;;;;;;22.00;17.79;99895.19;1704468;83;21041;-66
2022/03/25 10:29:50;;;;;;;5.45;3.72;;;;;;;21.69;18.37;99896.26;1698880;83;21017;-66
2022/03/25 10:32:20;;;;;;;3.40;3.10;;;;;;;21.51;18.45;99899.03;1710813;83;21019;-67
2022/03/25 10:35:08;;;;;;;4.67;3.10;;;;;;;21.39;18.42;99897.66;1700788;83;21462;-68
2022/03/25 10:37:38;;;;;;;4.15;3.17;;;;;;;21.20;18.55;99895.22;1694032;83;20974;-68
2022/03/25 10:40:07;;;;;;;3.95;3.27;;;;;;;20.91;19.04;99891.41;1714816;83;21450;-67
2022/03/25 10:42:36;;;;;;;4.58;3.42;;;;;;;20.67;19.26;99890.47;1694719;83;21482;-67
2022/03/25 10:45:24;;;;;;;4.50;3.47;;;;;;;20.55;19.33;99892.77;1715178;83;20983;-68
2022/03/25 10:48:12;;;;;;;6.75;3.72;;;;;;;20.39;19.66;99886.08;1707370;83;22169;-64
2022/03/25 10:50:57;;;;;;;5.12;3.10;;;;;;;20.20;19.78;99881.17;1681630;83;20987;-66
2022/03/25 10:53:26;;;;;;;5.45;3.83;;;;;;;19.95;20.08;99883.56;1713002;83;21355;-66
2022/03/25 10:55:59;;;;;;;3.90;3.60;;;;;;;19.60;20.40;99886.77;1715482;83;20947;-67
2022/03/25 10:58:26;;;;;;;5.00;3.77;;;;;;;19.32;20.72;99886.82;1706465;83;21068;-67
2022/03/25 11:00:53;;;;;;;4.40;4.00;;;;;;;19.10;21.03;99891.19;1702995;83;21934;-66
2022/03/25 11:03:20;;;;;;;4.00;3.58;;;;;;;18.99;20.96;99881.59;1709167;83;21544;-67
2022/03/25 11:05:49;;;;;;;4.00;3.30;;;;;;;18.84;21.31;99879.70;1714505;83;21002;-67
2022/03/25 11:08:16;;;;;;;3.90;3.50;;;;;;;18.74;21.38;99874.77;1712881;83;20986;-64
2022/03/25 11:10:44;;;;;;;3.58;3.27;;;;;;;18.62;21.53;99875.61;1704865;83;20927;-66
2022/03/25 11:13:11;;;;;;;5.40;3.33;;;;;;;18.53;21.62;99866.13;1712851;83;21884;-66
2022/03/25 11:15:40;;;;;;;4.60;3.65;;;;;;;18.45;21.72;99874.73;1704104;83;21540;-66
2022/03/25 11:18:07;;;;;;;4.15;3.15;;;;;;;18.38;21.72;99869.85;1714210;83;20943;-65
2022/03/25 11:20:36;;;;;;;4.90;3.75;;;;;;;18.31;21.85;99869.56;1686794;83;20994;-65
2022/03/25 11:23:21;;;;;;;5.20;3.20;;;;;;;18.24;21.72;99862.86;1714956;83;21464;-65
2022/03/25 11:25:53;;;;;;;3.90;3.60;;;;;;;18.24;21.82;99864.72;1694902;83;21147;-66
2022/03/25 11:28:32;;;;;;;3.83;3.50;;;;;;;18.22;21.88;99862.77;1712962;83;21025;-65
2022/03/25 11:31:04;;;;;;;4.65;3.60;;;;;;;18.24;21.81;99856.13;1703696;83;21061;-65
2022/03/25 11:33:32;;;;;;;4.25;3.45;;;;;;;18.14;21.80;99865.67;1693744;83;22196;-66
2022/03/25 11:36:15;;;;;;;4.30;3.90;;;;;;;18.02;21.94;99865.98;1701951;83;21635;-67
2022/03/25 11:38:42;;;;;;;5.95;3.72;;;;;;;17.93;21.98;99864.05;1706138;83;21288;-67
2022/03/25 11:41:28;;;;;;;4.67;3.83;;;;;;;17.84;22.14;99862.58;1712811;83;20930;-66
2022/03/25 11:44:18;;;;;;;3.35;3.05;;;;;;;17.78;22.32;99868.81;1702468;83;20899;-66
2022/03/25 11:47:05;;;;;;;4.67;4.28;;;;;;;17.82;22.40;99861.45;1715754;83;20975;-66
2022/03/25 11:49:36;;;;;;;4.37;3.75;;;;;;;17.85;22.14;99863.73;1714603;83;21532;-66
2022/03/25 11:52:31;;;;;;;4.62;3.52;;;;;;;17.83;22.09;99855.56;1715110;83;21149;-66